sensor_id;sensor_type;location;lat;lon;timestamp;P1;durP1;ratioP1;P2;durP2;ratioP2
74168;SDS011;62523;53.336;83.690;2023-03-08T00:02:09;9.00;;;4.67;;
74168;SDS011;62523;53.336;83.690;2023-03-08T00:07:10;9.63;;;5.60;;
74168;SDS011;62523;53.336;83.690;2023-03-08T00:12:12;15.60;;;5.05;;
74168;SDS011;62523;53.336;83.690;2023-03-08T00:17:13;12.75;;;5.97;;
74168;SDS011;62523;53.336;83.690;2023-03-08T00:22:14;12.93;;;4.93;;
74168;SDS011;62523;53.336;83.690;2023-03-08T00:27:15;9.40;;;4.93;;
74168;SDS011;62523;53.336;83.690;2023-03-08T00:32:16;11.97;;;6.20;;
74168;SDS011;62523;53.336;83.690;2023-03-08T00:37:18;12.80;;;4.90;;
74168;SDS011;62523;53.336;83.690;2023-03-08T00:47:21;9.10;;;4.82;;
74168;SDS011;62523;53.336;83.690;2023-03-08T00:52:22;9.33;;;6.20;;
74168;SDS011;62523;53.336;83.690;2023-03-08T00:57:23;9.40;;;5.53;;
74168;SDS011;62523;53.336;83.690;2023-03-08T01:02:24;13.77;;;5.73;;
74168;SDS011;62523;53.336;83.690;2023-03-08T01:07:25;7.87;;;5.57;;
74168;SDS011;62523;53.336;83.690;2023-03-08T01:12:27;12.85;;;5.60;;
74168;SDS011;62523;53.336;83.690;2023-03-08T01:17:29;12.25;;;5.60;;
74168;SDS011;62523;53.336;83.690;2023-03-08T01:22:30;13.35;;;4.70;;
74168;SDS011;62523;53.336;83.690;2023-03-08T01:27:31;9.27;;;5.43;;
74168;SDS011;62523;53.336;83.690;2023-03-08T01:32:32;10.30;;;6.43;;
74168;SDS011;62523;53.336;83.690;2023-03-08T01:37:34;10.40;;;5.17;;
74168;SDS011;62523;53.336;83.690;2023-03-08T01:42:36;15.02;;;5.03;;
74168;SDS011;62523;53.336;83.690;2023-03-08T01:47:38;9.40;;;5.00;;
74168;SDS011;62523;53.336;83.690;2023-03-08T01:52:43;7.43;;;3.70;;
74168;SDS011;62523;53.336;83.690;2023-03-08T01:57:48;3.67;;;2.60;;
74168;SDS011;62523;53.336;83.690;2023-03-08T02:02:56;10.02;;;2.58;;
74168;SDS011;62523;53.336;83.690;2023-03-08T02:08:03;2.67;;;1.58;;
74168;SDS011;62523;53.336;83.690;2023-03-08T02:13:05;6.20;;;2.00;;
74168;SDS011;62523;53.336;83.690;2023-03-08T02:18:09;2.65;;;1.25;;
74168;SDS011;62523;53.336;83.690;2023-03-08T02:23:14;1.20;;;0.93;;
74168;SDS011;62523;53.336;83.690;2023-03-08T02:28:18;1.65;;;1.55;;
74168;SDS011;62523;53.336;83.690;2023-03-08T02:33:21;6.03;;;1.42;;
74168;SDS011;62523;53.336;83.690;2023-03-08T02:38:22;2.65;;;1.23;;
74168;SDS011;62523;53.336;83.690;2023-03-08T02:43:23;1.43;;;1.00;;
74168;SDS011;62523;53.336;83.690;2023-03-08T02:48:25;1.40;;;0.95;;
74168;SDS011;62523;53.336;83.690;2023-03-08T02:53:28;0.73;;;0.60;;
74168;SDS011;62523;53.336;83.690;2023-03-08T02:58:30;2.37;;;0.90;;
74168;SDS011;62523;53.336;83.690;2023-03-08T03:03:31;3.00;;;0.77;;
74168;SDS011;62523;53.336;83.690;2023-03-08T03:08:32;1.08;;;0.98;;
74168;SDS011;62523;53.336;83.690;2023-03-08T03:13:33;2.47;;;1.00;;
74168;SDS011;62523;53.336;83.690;2023-03-08T03:18:34;1.27;;;1.17;;
74168;SDS011;62523;53.336;83.690;2023-03-08T03:23:36;1.17;;;1.03;;
74168;SDS011;62523;53.336;83.690;2023-03-08T03:28:37;1.02;;;0.55;;
74168;SDS011;62523;53.336;83.690;2023-03-08T03:33:39;5.47;;;0.70;;
74168;SDS011;62523;53.336;83.690;2023-03-08T03:38:40;4.70;;;0.68;;
74168;SDS011;62523;53.336;83.690;2023-03-08T03:43:41;1.55;;;1.15;;
74168;SDS011;62523;53.336;83.690;2023-03-08T03:48:43;0.82;;;0.65;;
74168;SDS011;62523;53.336;83.690;2023-03-08T03:53:44;1.17;;;0.70;;
74168;SDS011;62523;53.336;83.690;2023-03-08T03:58:46;2.75;;;0.77;;
74168;SDS011;62523;53.336;83.690;2023-03-08T04:03:48;1.13;;;1.00;;
74168;SDS011;62523;53.336;83.690;2023-03-08T04:08:54;0.73;;;0.73;;
74168;SDS011;62523;53.336;83.690;2023-03-08T04:13:57;1.92;;;1.08;;
74168;SDS011;62523;53.336;83.690;2023-03-08T04:18:59;1.53;;;0.70;;
74168;SDS011;62523;53.336;83.690;2023-03-08T04:24:03;6.03;;;2.00;;
74168;SDS011;62523;53.336;83.690;2023-03-08T04:29:04;1.38;;;1.02;;
74168;SDS011;62523;53.336;83.690;2023-03-08T04:34:11;3.75;;;1.65;;
74168;SDS011;62523;53.336;83.690;2023-03-08T04:39:12;1.92;;;1.75;;
74168;SDS011;62523;53.336;83.690;2023-03-08T04:44:13;2.33;;;1.77;;
74168;SDS011;62523;53.336;83.690;2023-03-08T04:49:14;3.23;;;2.07;;
74168;SDS011;62523;53.336;83.690;2023-03-08T04:54:16;4.23;;;1.43;;
74168;SDS011;62523;53.336;83.690;2023-03-08T04:59:17;4.13;;;2.63;;
74168;SDS011;62523;53.336;83.690;2023-03-08T05:04:18;4.67;;;3.60;;
74168;SDS011;62523;53.336;83.690;2023-03-08T05:09:19;4.23;;;2.13;;
74168;SDS011;62523;53.336;83.690;2023-03-08T05:14:20;6.17;;;2.27;;
74168;SDS011;62523;53.336;83.690;2023-03-08T05:19:21;1.40;;;1.30;;
74168;SDS011;62523;53.336;83.690;2023-03-08T05:24:24;5.95;;;2.95;;
74168;SDS011;62523;53.336;83.690;2023-03-08T05:29:26;2.22;;;1.70;;
74168;SDS011;62523;53.336;83.690;2023-03-08T05:34:28;3.73;;;1.90;;
74168;SDS011;62523;53.336;83.690;2023-03-08T05:39:29;9.15;;;3.35;;
74168;SDS011;62523;53.336;83.690;2023-03-08T05:44:30;11.10;;;4.27;;
74168;SDS011;62523;53.336;83.690;2023-03-08T05:49:31;7.20;;;2.53;;
74168;SDS011;62523;53.336;83.690;2023-03-08T05:54:33;7.05;;;2.75;;
74168;SDS011;62523;53.336;83.690;2023-03-08T05:59:34;4.10;;;2.42;;
74168;SDS011;62523;53.336;83.690;2023-03-08T06:09:37;3.65;;;2.67;;
74168;SDS011;62523;53.336;83.690;2023-03-08T06:14:38;5.07;;;1.85;;
74168;SDS011;62523;53.336;83.690;2023-03-08T06:19:39;1.75;;;1.58;;
74168;SDS011;62523;53.336;83.690;2023-03-08T06:24:41;1.40;;;1.30;;
74168;SDS011;62523;53.336;83.690;2023-03-08T06:29:42;5.13;;;1.63;;
74168;SDS011;62523;53.336;83.690;2023-03-08T06:34:43;1.95;;;1.75;;
74168;SDS011;62523;53.336;83.690;2023-03-08T06:39:46;1.63;;;0.90;;
74168;SDS011;62523;53.336;83.690;2023-03-08T06:44:47;1.42;;;0.98;;
74168;SDS011;62523;53.336;83.690;2023-03-08T06:49:48;2.20;;;1.08;;
74168;SDS011;62523;53.336;83.690;2023-03-08T06:54:51;1.45;;;1.35;;
74168;SDS011;62523;53.336;83.690;2023-03-08T06:59:52;3.05;;;1.52;;
74168;SDS011;62523;53.336;83.690;2023-03-08T07:04:53;2.43;;;1.50;;
74168;SDS011;62523;53.336;83.690;2023-03-08T07:09:54;2.20;;;1.63;;
74168;SDS011;62523;53.336;83.690;2023-03-08T07:14:57;7.88;;;1.77;;
74168;SDS011;62523;53.336;83.690;2023-03-08T07:19:58;2.00;;;1.77;;
74168;SDS011;62523;53.336;83.690;2023-03-08T07:24:59;2.73;;;2.53;;
74168;SDS011;62523;53.336;83.690;2023-03-08T07:30:00;2.65;;;1.30;;
74168;SDS011;62523;53.336;83.690;2023-03-08T07:35:02;2.75;;;1.63;;
74168;SDS011;62523;53.336;83.690;2023-03-08T07:40:04;2.53;;;2.13;;
74168;SDS011;62523;53.336;83.690;2023-03-08T07:45:06;7.70;;;3.65;;
74168;SDS011;62523;53.336;83.690;2023-03-08T07:50:08;4.30;;;1.90;;
74168;SDS011;62523;53.336;83.690;2023-03-08T07:55:10;6.03;;;1.98;;
74168;SDS011;62523;53.336;83.690;2023-03-08T08:00:13;5.40;;;2.50;;
74168;SDS011;62523;53.336;83.690;2023-03-08T08:05:15;3.13;;;1.83;;
74168;SDS011;62523;53.336;83.690;2023-03-08T08:10:18;3.72;;;3.38;;
74168;SDS011;62523;53.336;83.690;2023-03-08T08:15:20;2.53;;;2.33;;
74168;SDS011;62523;53.336;83.690;2023-03-08T08:20:24;6.82;;;3.80;;
74168;SDS011;62523;53.336;83.690;2023-03-08T08:25:26;3.20;;;2.88;;
74168;SDS011;62523;53.336;83.690;2023-03-08T08:30:27;1.77;;;1.40;;
74168;SDS011;62523;53.336;83.690;2023-03-08T08:35:32;4.88;;;2.53;;
74168;SDS011;62523;53.336;83.690;2023-03-08T08:40:33;3.17;;;2.63;;
74168;SDS011;62523;53.336;83.690;2023-03-08T08:45:34;3.20;;;2.20;;
74168;SDS011;62523;53.336;83.690;2023-03-08T08:50:37;3.60;;;1.77;;
74168;SDS011;62523;53.336;83.690;2023-03-08T08:55:40;3.72;;;2.92;;
74168;SDS011;62523;53.336;83.690;2023-03-08T09:00:41;10.95;;;1.90;;
74168;SDS011;62523;53.336;83.690;2023-03-08T09:05:43;3.13;;;1.70;;
74168;SDS011;62523;53.336;83.690;2023-03-08T09:10:44;8.40;;;1.98;;
74168;SDS011;62523;53.336;83.690;2023-03-08T09:15:45;1.70;;;1.17;;
74168;SDS011;62523;53.336;83.690;2023-03-08T09:20:47;3.42;;;2.05;;
74168;SDS011;62523;53.336;83.690;2023-03-08T09:25:55;2.40;;;2.20;;
74168;SDS011;62523;53.336;83.690;2023-03-08T09:30:57;5.30;;;1.90;;
74168;SDS011;62523;53.336;83.690;2023-03-08T09:35:59;2.72;;;2.05;;
74168;SDS011;62523;53.336;83.690;2023-03-08T09:46:35;3.03;;;2.22;;
74168;SDS011;62523;53.336;83.690;2023-03-08T09:51:41;2.35;;;1.77;;
74168;SDS011;62523;53.336;83.690;2023-03-08T09:56:49;2.40;;;1.80;;
74168;SDS011;62523;53.336;83.690;2023-03-08T10:01:56;4.13;;;2.55;;
74168;SDS011;62523;53.336;83.690;2023-03-08T10:12:51;3.85;;;2.60;;
74168;SDS011;62523;53.336;83.690;2023-03-08T10:18:15;4.60;;;1.90;;
74168;SDS011;62523;53.336;83.690;2023-03-08T10:23:27;3.90;;;2.58;;
74168;SDS011;62523;53.336;83.690;2023-03-08T10:28:31;2.30;;;1.40;;
74168;SDS011;62523;53.336;83.690;2023-03-08T10:33:34;2.25;;;1.63;;
74168;SDS011;62523;53.336;83.690;2023-03-08T10:38:35;4.60;;;1.75;;
74168;SDS011;62523;53.336;83.690;2023-03-08T10:43:38;3.33;;;2.20;;
74168;SDS011;62523;53.336;83.690;2023-03-08T10:48:51;5.55;;;2.42;;
74168;SDS011;62523;53.336;83.690;2023-03-08T10:53:53;2.95;;;1.05;;
74168;SDS011;62523;53.336;83.690;2023-03-08T10:58:56;4.15;;;1.92;;
74168;SDS011;62523;53.336;83.690;2023-03-08T11:09:17;15.35;;;2.58;;
74168;SDS011;62523;53.336;83.690;2023-03-08T11:14:23;11.00;;;3.70;;
74168;SDS011;62523;53.336;83.690;2023-03-08T11:24:39;1.35;;;1.25;;
74168;SDS011;62523;53.336;83.690;2023-03-08T11:40:50;4.10;;;1.58;;
74168;SDS011;62523;53.336;83.690;2023-03-08T11:51:22;1.65;;;0.80;;
74168;SDS011;62523;53.336;83.690;2023-03-08T11:56:46;2.22;;;1.67;;
74168;SDS011;62523;53.336;83.690;2023-03-08T12:07:04;4.15;;;3.22;;
74168;SDS011;62523;53.336;83.690;2023-03-08T12:12:15;2.97;;;1.85;;
74168;SDS011;62523;53.336;83.690;2023-03-08T12:17:34;3.92;;;2.00;;
74168;SDS011;62523;53.336;83.690;2023-03-08T12:33:25;3.53;;;1.50;;
74168;SDS011;62523;53.336;83.690;2023-03-08T12:38:36;2.63;;;1.52;;
74168;SDS011;62523;53.336;83.690;2023-03-08T12:43:44;1.38;;;1.00;;
74168;SDS011;62523;53.336;83.690;2023-03-08T12:48:46;1.40;;;1.10;;
74168;SDS011;62523;53.336;83.690;2023-03-08T13:20:17;2.00;;;1.00;;
74168;SDS011;62523;53.336;83.690;2023-03-08T13:30:55;2.20;;;1.15;;
74168;SDS011;62523;53.336;83.690;2023-03-08T13:36:02;1.60;;;0.93;;
74168;SDS011;62523;53.336;83.690;2023-03-08T13:41:06;2.38;;;0.95;;
74168;SDS011;62523;53.336;83.690;2023-03-08T13:46:09;2.88;;;1.02;;
74168;SDS011;62523;53.336;83.690;2023-03-08T13:51:17;5.75;;;1.85;;
74168;SDS011;62523;53.336;83.690;2023-03-08T13:56:21;4.43;;;1.20;;
74168;SDS011;62523;53.336;83.690;2023-03-08T14:01:24;2.58;;;1.30;;
74168;SDS011;62523;53.336;83.690;2023-03-08T14:06:27;4.50;;;2.15;;
74168;SDS011;62523;53.336;83.690;2023-03-08T14:11:31;2.70;;;1.83;;
74168;SDS011;62523;53.336;83.690;2023-03-08T14:16:38;4.57;;;2.35;;
74168;SDS011;62523;53.336;83.690;2023-03-08T14:37:23;3.75;;;2.65;;
74168;SDS011;62523;53.336;83.690;2023-03-08T14:42:35;1.77;;;1.30;;
74168;SDS011;62523;53.336;83.690;2023-03-08T14:47:46;1.98;;;1.35;;
74168;SDS011;62523;53.336;83.690;2023-03-08T14:52:59;2.38;;;1.25;;
74168;SDS011;62523;53.336;83.690;2023-03-08T14:58:02;5.25;;;3.17;;
74168;SDS011;62523;53.336;83.690;2023-03-08T15:03:10;0.73;;;0.65;;
74168;SDS011;62523;53.336;83.690;2023-03-08T15:08:12;3.23;;;1.13;;
74168;SDS011;62523;53.336;83.690;2023-03-08T15:13:16;3.58;;;1.55;;
74168;SDS011;62523;53.336;83.690;2023-03-08T15:18:20;2.22;;;0.70;;
74168;SDS011;62523;53.336;83.690;2023-03-08T15:23:22;1.63;;;0.85;;
74168;SDS011;62523;53.336;83.690;2023-03-08T15:28:26;1.60;;;1.17;;
74168;SDS011;62523;53.336;83.690;2023-03-08T15:33:28;0.45;;;0.45;;
74168;SDS011;62523;53.336;83.690;2023-03-08T15:38:29;3.20;;;1.13;;
74168;SDS011;62523;53.336;83.690;2023-03-08T15:43:30;1.97;;;1.43;;
74168;SDS011;62523;53.336;83.690;2023-03-08T15:48:32;10.93;;;3.22;;
74168;SDS011;62523;53.336;83.690;2023-03-08T15:53:33;0.50;;;0.50;;
74168;SDS011;62523;53.336;83.690;2023-03-08T15:58:34;1.67;;;1.10;;
74168;SDS011;62523;53.336;83.690;2023-03-08T16:03:36;3.00;;;1.87;;
74168;SDS011;62523;53.336;83.690;2023-03-08T16:08:40;2.45;;;1.65;;
74168;SDS011;62523;53.336;83.690;2023-03-08T16:13:43;2.95;;;1.70;;
74168;SDS011;62523;53.336;83.690;2023-03-08T16:18:44;1.53;;;0.83;;
74168;SDS011;62523;53.336;83.690;2023-03-08T16:23:46;2.08;;;1.73;;
74168;SDS011;62523;53.336;83.690;2023-03-08T16:28:47;2.80;;;1.33;;
74168;SDS011;62523;53.336;83.690;2023-03-08T16:33:48;1.50;;;1.30;;
74168;SDS011;62523;53.336;83.690;2023-03-08T16:38:49;2.37;;;1.73;;
74168;SDS011;62523;53.336;83.690;2023-03-08T16:43:50;1.70;;;1.23;;
74168;SDS011;62523;53.336;83.690;2023-03-08T16:48:56;4.90;;;1.48;;
74168;SDS011;62523;53.336;83.690;2023-03-08T16:53:59;1.85;;;1.38;;
74168;SDS011;62523;53.336;83.690;2023-03-08T16:59:00;2.07;;;1.43;;
74168;SDS011;62523;53.336;83.690;2023-03-08T17:04:01;3.30;;;2.42;;
74168;SDS011;62523;53.336;83.690;2023-03-08T17:09:03;3.13;;;1.30;;
74168;SDS011;62523;53.336;83.690;2023-03-08T17:14:10;3.22;;;1.52;;
74168;SDS011;62523;53.336;83.690;2023-03-08T17:19:12;1.20;;;1.08;;
74168;SDS011;62523;53.336;83.690;2023-03-08T17:24:13;2.10;;;1.90;;
74168;SDS011;62523;53.336;83.690;2023-03-08T17:29:15;3.67;;;2.08;;
74168;SDS011;62523;53.336;83.690;2023-03-08T17:34:16;3.70;;;1.43;;
74168;SDS011;62523;53.336;83.690;2023-03-08T17:39:21;2.90;;;1.90;;
74168;SDS011;62523;53.336;83.690;2023-03-08T17:44:22;2.03;;;1.80;;
74168;SDS011;62523;53.336;83.690;2023-03-08T17:49:23;4.78;;;1.80;;
74168;SDS011;62523;53.336;83.690;2023-03-08T17:54:24;2.50;;;2.30;;
74168;SDS011;62523;53.336;83.690;2023-03-08T17:59:28;5.55;;;2.97;;
74168;SDS011;62523;53.336;83.690;2023-03-08T18:04:29;2.67;;;2.05;;
74168;SDS011;62523;53.336;83.690;2023-03-08T18:09:30;2.97;;;1.80;;
74168;SDS011;62523;53.336;83.690;2023-03-08T18:14:31;2.50;;;2.30;;
74168;SDS011;62523;53.336;83.690;2023-03-08T18:19:33;1.40;;;1.30;;
74168;SDS011;62523;53.336;83.690;2023-03-08T18:24:34;2.20;;;1.92;;
74168;SDS011;62523;53.336;83.690;2023-03-08T18:29:35;3.60;;;1.73;;
74168;SDS011;62523;53.336;83.690;2023-03-08T18:34:37;1.60;;;1.50;;
74168;SDS011;62523;53.336;83.690;2023-03-08T18:39:41;2.45;;;1.95;;
74168;SDS011;62523;53.336;83.690;2023-03-08T18:44:42;1.80;;;1.27;;
74168;SDS011;62523;53.336;83.690;2023-03-08T18:49:43;2.85;;;1.88;;
74168;SDS011;62523;53.336;83.690;2023-03-08T18:54:44;3.10;;;2.50;;
74168;SDS011;62523;53.336;83.690;2023-03-08T18:59:47;2.08;;;1.90;;
74168;SDS011;62523;53.336;83.690;2023-03-08T19:04:49;4.40;;;2.23;;
74168;SDS011;62523;53.336;83.690;2023-03-08T19:09:52;3.63;;;2.70;;
74168;SDS011;62523;53.336;83.690;2023-03-08T19:14:54;2.97;;;1.77;;
74168;SDS011;62523;53.336;83.690;2023-03-08T19:19:55;2.93;;;1.90;;
74168;SDS011;62523;53.336;83.690;2023-03-08T19:24:56;2.00;;;1.87;;
74168;SDS011;62523;53.336;83.690;2023-03-08T19:29:57;2.03;;;1.87;;
74168;SDS011;62523;53.336;83.690;2023-03-08T19:34:58;2.77;;;2.13;;
74168;SDS011;62523;53.336;83.690;2023-03-08T19:40:01;1.75;;;1.65;;
74168;SDS011;62523;53.336;83.690;2023-03-08T19:45:08;1.92;;;1.75;;
74168;SDS011;62523;53.336;83.690;2023-03-08T19:50:10;3.78;;;2.42;;
74168;SDS011;62523;53.336;83.690;2023-03-08T20:00:13;5.85;;;2.65;;
74168;SDS011;62523;53.336;83.690;2023-03-08T20:05:14;2.40;;;2.13;;
74168;SDS011;62523;53.336;83.690;2023-03-08T20:10:18;2.05;;;1.85;;
74168;SDS011;62523;53.336;83.690;2023-03-08T20:15:19;3.72;;;2.70;;
74168;SDS011;62523;53.336;83.690;2023-03-08T20:20:20;4.22;;;2.78;;
74168;SDS011;62523;53.336;83.690;2023-03-08T20:25:21;2.95;;;2.75;;
74168;SDS011;62523;53.336;83.690;2023-03-08T20:30:23;2.27;;;2.07;;
74168;SDS011;62523;53.336;83.690;2023-03-08T20:35:24;2.83;;;1.80;;
74168;SDS011;62523;53.336;83.690;2023-03-08T20:40:25;2.90;;;2.70;;
74168;SDS011;62523;53.336;83.690;2023-03-08T20:45:26;4.50;;;2.33;;
74168;SDS011;62523;53.336;83.690;2023-03-08T20:50:28;6.88;;;2.15;;
74168;SDS011;62523;53.336;83.690;2023-03-08T20:55:29;2.30;;;2.03;;
74168;SDS011;62523;53.336;83.690;2023-03-08T21:00:30;5.40;;;2.73;;
74168;SDS011;62523;53.336;83.690;2023-03-08T21:05:33;3.58;;;2.97;;
74168;SDS011;62523;53.336;83.690;2023-03-08T21:10:36;2.72;;;1.85;;
74168;SDS011;62523;53.336;83.690;2023-03-08T21:15:38;2.70;;;2.03;;
74168;SDS011;62523;53.336;83.690;2023-03-08T21:20:39;2.30;;;1.77;;
74168;SDS011;62523;53.336;83.690;2023-03-08T21:25:41;3.63;;;2.67;;
74168;SDS011;62523;53.336;83.690;2023-03-08T21:30:42;2.33;;;1.87;;
74168;SDS011;62523;53.336;83.690;2023-03-08T21:35:43;2.03;;;1.87;;
74168;SDS011;62523;53.336;83.690;2023-03-08T21:40:44;8.20;;;3.20;;
74168;SDS011;62523;53.336;83.690;2023-03-08T21:45:45;2.13;;;1.92;;
74168;SDS011;62523;53.336;83.690;2023-03-08T21:50:46;3.23;;;2.10;;
74168;SDS011;62523;53.336;83.690;2023-03-08T21:55:48;2.93;;;2.70;;
74168;SDS011;62523;53.336;83.690;2023-03-08T22:00:49;3.00;;;2.40;;
74168;SDS011;62523;53.336;83.690;2023-03-08T22:05:50;2.70;;;2.40;;
74168;SDS011;62523;53.336;83.690;2023-03-08T22:10:51;2.70;;;1.97;;
74168;SDS011;62523;53.336;83.690;2023-03-08T22:15:53;2.10;;;1.85;;
74168;SDS011;62523;53.336;83.690;2023-03-08T22:20:55;3.10;;;2.33;;
74168;SDS011;62523;53.336;83.690;2023-03-08T22:25:56;3.47;;;2.63;;
74168;SDS011;62523;53.336;83.690;2023-03-08T22:30:57;3.22;;;2.45;;
74168;SDS011;62523;53.336;83.690;2023-03-08T22:35:58;3.60;;;2.77;;
74168;SDS011;62523;53.336;83.690;2023-03-08T22:40:59;3.10;;;2.17;;
74168;SDS011;62523;53.336;83.690;2023-03-08T22:46:08;9.65;;;2.90;;
74168;SDS011;62523;53.336;83.690;2023-03-08T22:51:13;2.40;;;2.20;;
74168;SDS011;62523;53.336;83.690;2023-03-08T22:56:17;3.17;;;2.03;;
74168;SDS011;62523;53.336;83.690;2023-03-08T23:01:26;3.58;;;2.30;;
74168;SDS011;62523;53.336;83.690;2023-03-08T23:06:29;2.63;;;1.92;;
74168;SDS011;62523;53.336;83.690;2023-03-08T23:16:32;5.05;;;2.53;;
74168;SDS011;62523;53.336;83.690;2023-03-08T23:21:33;4.45;;;2.08;;
74168;SDS011;62523;53.336;83.690;2023-03-08T23:26:37;2.20;;;1.58;;
74168;SDS011;62523;53.336;83.690;2023-03-08T23:31:41;4.82;;;2.75;;
74168;SDS011;62523;53.336;83.690;2023-03-08T23:36:44;7.03;;;3.53;;
74168;SDS011;62523;53.336;83.690;2023-03-08T23:41:45;5.72;;;2.63;;
74168;SDS011;62523;53.336;83.690;2023-03-08T23:46:47;3.13;;;2.83;;
74168;SDS011;62523;53.336;83.690;2023-03-08T23:51:48;6.50;;;2.40;;
74168;SDS011;62523;53.336;83.690;2023-03-08T23:56:49;9.53;;;2.67;;
